sensor_id;sensor_type;location;lat;lon;timestamp;pressure;altitude;pressure_sealevel;temperature;humidity
64616;BME280;51027;42.162;24.754;2022-11-20T00:01:24;99136.97;;;12.44;100.00
64616;BME280;51027;42.162;24.754;2022-11-20T00:07:05;99170.22;;;12.48;100.00
64616;BME280;51027;42.162;24.754;2022-11-20T00:09:48;99155.03;;;12.51;100.00
64616;BME280;51027;42.162;24.754;2022-11-20T00:12:19;99153.31;;;12.66;100.00
64616;BME280;51027;42.162;24.754;2022-11-20T00:15:12;99157.84;;;12.64;100.00
64616;BME280;51027;42.162;24.754;2022-11-20T00:18:04;99165.75;;;12.32;100.00
64616;BME280;51027;42.162;24.754;2022-11-20T00:20:41;99112.88;;;12.18;100.00
64616;BME280;51027;42.162;24.754;2022-11-20T00:23:10;99159.97;;;12.42;100.00
64616;BME280;51027;42.162;24.754;2022-11-20T00:25:39;99165.69;;;12.50;100.00
64616;BME280;51027;42.162;24.754;2022-11-20T00:28:23;99152.97;;;12.56;100.00
64616;BME280;51027;42.162;24.754;2022-11-20T00:31:02;99152.56;;;12.64;100.00
64616;BME280;51027;42.162;24.754;2022-11-20T00:33:37;99153.06;;;12.71;100.00
64616;BME280;51027;42.162;24.754;2022-11-20T00:36:11;99153.91;;;12.55;100.00
64616;BME280;51027;42.162;24.754;2022-11-20T00:38:38;99138.75;;;12.11;100.00
64616;BME280;51027;42.162;24.754;2022-11-20T00:41:06;99162.28;;;12.48;100.00
64616;BME280;51027;42.162;24.754;2022-11-20T00:43:33;99154.19;;;12.51;100.00
64616;BME280;51027;42.162;24.754;2022-11-20T00:46:04;99150.88;;;12.47;100.00
64616;BME280;51027;42.162;24.754;2022-11-20T00:48:30;99158.59;;;12.34;100.00
64616;BME280;51027;42.162;24.754;2022-11-20T00:50:56;99151.78;;;12.46;100.00
64616;BME280;51027;42.162;24.754;2022-11-20T00:53:28;99160.81;;;12.42;100.00
64616;BME280;51027;42.162;24.754;2022-11-20T00:55:59;99158.78;;;12.47;100.00
64616;BME280;51027;42.162;24.754;2022-11-20T00:58:29;99146.25;;;12.51;100.00
64616;BME280;51027;42.162;24.754;2022-11-20T01:01:23;99137.31;;;12.22;100.00
64616;BME280;51027;42.162;24.754;2022-11-20T01:03:51;99160.47;;;12.32;100.00
64616;BME280;51027;42.162;24.754;2022-11-20T01:06:32;99149.75;;;12.35;100.00
64616;BME280;51027;42.162;24.754;2022-11-20T01:09:01;99154.34;;;12.32;100.00
64616;BME280;51027;42.162;24.754;2022-11-20T01:11:34;99162.53;;;12.27;100.00
64616;BME280;51027;42.162;24.754;2022-11-20T01:14:01;99145.75;;;12.28;100.00
64616;BME280;51027;42.162;24.754;2022-11-20T01:16:38;99143.09;;;12.44;100.00
64616;BME280;51027;42.162;24.754;2022-11-20T01:19:07;99157.00;;;12.16;100.00
64616;BME280;51027;42.162;24.754;2022-11-20T01:21:37;99126.75;;;12.22;100.00
64616;BME280;51027;42.162;24.754;2022-11-20T01:24:14;99137.56;;;12.17;100.00
64616;BME280;51027;42.162;24.754;2022-11-20T01:26:42;99115.00;;;12.27;100.00
64616;BME280;51027;42.162;24.754;2022-11-20T01:29:20;99110.41;;;12.31;100.00
64616;BME280;51027;42.162;24.754;2022-11-20T01:32:08;99079.81;;;12.11;100.00
64616;BME280;51027;42.162;24.754;2022-11-20T01:38:01;99123.06;;;12.56;100.00
64616;BME280;51027;42.162;24.754;2022-11-20T01:40:28;99121.13;;;12.59;100.00
64616;BME280;51027;42.162;24.754;2022-11-20T01:43:49;99104.25;;;12.62;100.00
64616;BME280;51027;42.162;24.754;2022-11-20T01:46:23;99115.69;;;12.47;100.00
64616;BME280;51027;42.162;24.754;2022-11-20T01:49:07;99117.03;;;12.54;100.00
64616;BME280;51027;42.162;24.754;2022-11-20T01:52:03;99105.88;;;12.49;100.00
64616;BME280;51027;42.162;24.754;2022-11-20T01:54:46;99095.75;;;12.57;100.00
64616;BME280;51027;42.162;24.754;2022-11-20T01:57:14;99093.34;;;12.68;100.00
64616;BME280;51027;42.162;24.754;2022-11-20T01:59:45;99074.75;;;12.69;100.00
64616;BME280;51027;42.162;24.754;2022-11-20T02:02:14;99088.06;;;12.68;100.00
64616;BME280;51027;42.162;24.754;2022-11-20T02:05:02;99091.78;;;12.80;100.00
64616;BME280;51027;42.162;24.754;2022-11-20T02:07:34;99104.75;;;12.68;100.00
64616;BME280;51027;42.162;24.754;2022-11-20T02:10:01;99088.84;;;12.84;100.00
64616;BME280;51027;42.162;24.754;2022-11-20T02:12:37;99085.34;;;12.84;100.00
64616;BME280;51027;42.162;24.754;2022-11-20T02:15:21;99078.28;;;12.84;100.00
64616;BME280;51027;42.162;24.754;2022-11-20T02:17:50;99083.00;;;12.63;100.00
64616;BME280;51027;42.162;24.754;2022-11-20T02:20:44;99092.53;;;12.82;100.00
64616;BME280;51027;42.162;24.754;2022-11-20T02:26:17;99086.22;;;12.84;100.00
64616;BME280;51027;42.162;24.754;2022-11-20T02:28:48;99077.00;;;12.76;100.00
64616;BME280;51027;42.162;24.754;2022-11-20T02:31:15;99073.69;;;12.42;100.00
64616;BME280;51027;42.162;24.754;2022-11-20T02:33:45;99066.22;;;12.64;100.00
64616;BME280;51027;42.162;24.754;2022-11-20T02:36:15;99057.28;;;12.67;100.00
64616;BME280;51027;42.162;24.754;2022-11-20T02:38:49;99055.84;;;12.46;100.00
64616;BME280;51027;42.162;24.754;2022-11-20T02:41:18;99029.44;;;12.46;100.00
64616;BME280;51027;42.162;24.754;2022-11-20T02:43:54;99055.84;;;12.46;100.00
64616;BME280;51027;42.162;24.754;2022-11-20T02:46:20;99054.28;;;12.27;100.00
64616;BME280;51027;42.162;24.754;2022-11-20T02:48:49;99058.75;;;12.57;100.00
64616;BME280;51027;42.162;24.754;2022-11-20T02:51:18;99085.00;;;12.60;100.00
64616;BME280;51027;42.162;24.754;2022-11-20T02:53:44;99078.59;;;12.64;100.00
64616;BME280;51027;42.162;24.754;2022-11-20T02:56:13;99073.53;;;12.75;100.00
64616;BME280;51027;42.162;24.754;2022-11-20T02:58:39;99074.88;;;12.82;100.00
64616;BME280;51027;42.162;24.754;2022-11-20T03:01:14;99066.84;;;12.84;100.00
64616;BME280;51027;42.162;24.754;2022-11-20T03:03:45;99071.47;;;12.80;100.00
64616;BME280;51027;42.162;24.754;2022-11-20T03:06:39;99075.31;;;12.75;100.00
64616;BME280;51027;42.162;24.754;2022-11-20T03:09:05;99049.22;;;12.84;100.00
64616;BME280;51027;42.162;24.754;2022-11-20T03:11:52;99073.44;;;12.77;100.00
64616;BME280;51027;42.162;24.754;2022-11-20T03:14:18;99062.38;;;12.70;100.00
64616;BME280;51027;42.162;24.754;2022-11-20T03:16:49;99075.50;;;12.72;100.00
64616;BME280;51027;42.162;24.754;2022-11-20T03:22:53;99056.34;;;12.68;100.00
64616;BME280;51027;42.162;24.754;2022-11-20T03:25:48;99057.09;;;12.70;100.00
64616;BME280;51027;42.162;24.754;2022-11-20T03:28:17;99051.44;;;12.76;100.00
64616;BME280;51027;42.162;24.754;2022-11-20T03:31:24;99039.38;;;12.86;100.00
64616;BME280;51027;42.162;24.754;2022-11-20T03:47:25;99064.31;;;12.82;100.00
64616;BME280;51027;42.162;24.754;2022-11-20T03:50:14;99066.41;;;12.91;100.00
64616;BME280;51027;42.162;24.754;2022-11-20T03:52:48;99069.06;;;12.91;100.00
64616;BME280;51027;42.162;24.754;2022-11-20T03:55:17;99073.06;;;12.98;100.00
64616;BME280;51027;42.162;24.754;2022-11-20T03:57:57;99068.13;;;12.92;100.00
64616;BME280;51027;42.162;24.754;2022-11-20T04:00:34;99056.63;;;13.08;100.00
64616;BME280;51027;42.162;24.754;2022-11-20T04:03:18;99066.13;;;13.26;100.00
64616;BME280;51027;42.162;24.754;2022-11-20T04:05:44;99067.84;;;13.27;100.00
64616;BME280;51027;42.162;24.754;2022-11-20T04:08:25;99063.78;;;13.36;100.00
64616;BME280;51027;42.162;24.754;2022-11-20T04:15:00;99085.16;;;13.47;100.00
64616;BME280;51027;42.162;24.754;2022-11-20T04:17:26;99082.69;;;13.44;100.00
64616;BME280;51027;42.162;24.754;2022-11-20T04:20:04;99076.34;;;13.46;100.00
64616;BME280;51027;42.162;24.754;2022-11-20T04:26:30;99075.06;;;13.39;100.00
64616;BME280;51027;42.162;24.754;2022-11-20T04:29:04;99072.75;;;13.33;100.00
64616;BME280;51027;42.162;24.754;2022-11-20T04:34:38;99082.41;;;13.34;100.00
64616;BME280;51027;42.162;24.754;2022-11-20T04:39:52;99063.44;;;13.42;100.00
64616;BME280;51027;42.162;24.754;2022-11-20T04:42:30;99066.91;;;13.57;100.00
64616;BME280;51027;42.162;24.754;2022-11-20T04:45:17;99068.44;;;13.61;100.00
64616;BME280;51027;42.162;24.754;2022-11-20T04:47:45;99082.69;;;13.58;100.00
64616;BME280;51027;42.162;24.754;2022-11-20T04:50:14;99079.13;;;13.59;100.00
64616;BME280;51027;42.162;24.754;2022-11-20T04:53:00;99070.78;;;13.65;100.00
64616;BME280;51027;42.162;24.754;2022-11-20T04:55:26;99073.72;;;13.75;100.00
64616;BME280;51027;42.162;24.754;2022-11-20T05:04:35;99062.91;;;14.06;100.00
64616;BME280;51027;42.162;24.754;2022-11-20T05:07:43;99066.41;;;14.07;100.00
64616;BME280;51027;42.162;24.754;2022-11-20T05:09:59;99033.66;;;13.81;100.00
64616;BME280;51027;42.162;24.754;2022-11-20T05:12:25;99054.75;;;14.09;100.00
64616;BME280;51027;42.162;24.754;2022-11-20T05:14:51;99064.44;;;14.10;100.00
64616;BME280;51027;42.162;24.754;2022-11-20T05:17:17;99088.38;;;13.95;100.00
64616;BME280;51027;42.162;24.754;2022-11-20T05:19:43;99101.63;;;13.80;100.00
64616;BME280;51027;42.162;24.754;2022-11-20T05:25:18;99070.59;;;13.97;100.00
64616;BME280;51027;42.162;24.754;2022-11-20T05:27:44;99086.09;;;14.03;100.00
64616;BME280;51027;42.162;24.754;2022-11-20T05:30:10;99089.97;;;13.83;100.00
64616;BME280;51027;42.162;24.754;2022-11-20T05:32:36;99076.94;;;13.94;100.00
64616;BME280;51027;42.162;24.754;2022-11-20T05:38:55;99065.28;;;14.52;100.00
64616;BME280;51027;42.162;24.754;2022-11-20T05:41:49;99075.88;;;14.52;100.00
64616;BME280;51027;42.162;24.754;2022-11-20T05:44:53;99050.53;;;14.48;100.00
64616;BME280;51027;42.162;24.754;2022-11-20T05:50:30;99070.31;;;14.43;100.00
64616;BME280;51027;42.162;24.754;2022-11-20T05:53:02;99078.84;;;14.33;100.00
64616;BME280;51027;42.162;24.754;2022-11-20T05:55:55;99087.38;;;14.24;100.00
64616;BME280;51027;42.162;24.754;2022-11-20T05:58:26;99088.72;;;14.17;100.00
64616;BME280;51027;42.162;24.754;2022-11-20T06:01:08;99079.44;;;14.24;100.00
64616;BME280;51027;42.162;24.754;2022-11-20T06:19:17;99103.03;;;13.86;100.00
64616;BME280;51027;42.162;24.754;2022-11-20T06:22:44;99118.53;;;13.64;100.00
64616;BME280;51027;42.162;24.754;2022-11-20T06:25:43;99094.16;;;13.73;100.00
64616;BME280;51027;42.162;24.754;2022-11-20T06:28:32;99103.50;;;13.78;100.00
64616;BME280;51027;42.162;24.754;2022-11-20T06:37:49;99114.91;;;14.07;100.00
64616;BME280;51027;42.162;24.754;2022-11-20T06:40:14;99140.94;;;14.01;100.00
64616;BME280;51027;42.162;24.754;2022-11-20T06:42:40;99123.03;;;14.19;100.00
64616;BME280;51027;42.162;24.754;2022-11-20T06:45:05;99124.56;;;14.23;100.00
64616;BME280;51027;42.162;24.754;2022-11-20T06:47:31;99121.44;;;14.30;100.00
64616;BME280;51027;42.162;24.754;2022-11-20T06:49:56;99134.16;;;14.38;100.00
64616;BME280;51027;42.162;24.754;2022-11-20T06:52:22;99127.59;;;14.31;100.00
64616;BME280;51027;42.162;24.754;2022-11-20T06:54:47;99111.78;;;14.15;100.00
64616;BME280;51027;42.162;24.754;2022-11-20T06:57:12;99120.75;;;14.27;100.00
64616;BME280;51027;42.162;24.754;2022-11-20T06:59:38;99128.13;;;14.36;100.00
64616;BME280;51027;42.162;24.754;2022-11-20T07:02:03;99116.56;;;14.37;100.00
64616;BME280;51027;42.162;24.754;2022-11-20T07:04:29;99100.88;;;14.34;100.00
64616;BME280;51027;42.162;24.754;2022-11-20T07:06:54;99142.81;;;14.27;100.00
64616;BME280;51027;42.162;24.754;2022-11-20T07:09:19;99103.53;;;14.20;100.00
64616;BME280;51027;42.162;24.754;2022-11-20T07:11:45;99120.81;;;14.39;100.00
64616;BME280;51027;42.162;24.754;2022-11-20T07:14:10;99128.69;;;14.41;100.00
64616;BME280;51027;42.162;24.754;2022-11-20T07:16:36;99126.88;;;14.56;100.00
64616;BME280;51027;42.162;24.754;2022-11-20T07:19:01;99122.19;;;14.74;100.00
64616;BME280;51027;42.162;24.754;2022-11-20T07:21:26;99144.00;;;14.50;100.00
64616;BME280;51027;42.162;24.754;2022-11-20T07:23:52;99148.63;;;14.61;100.00
64616;BME280;51027;42.162;24.754;2022-11-20T07:26:17;99136.88;;;14.65;100.00
64616;BME280;51027;42.162;24.754;2022-11-20T07:28:46;99127.78;;;14.69;100.00
64616;BME280;51027;42.162;24.754;2022-11-20T07:31:11;99126.22;;;14.79;100.00
64616;BME280;51027;42.162;24.754;2022-11-20T07:33:49;99129.72;;;14.80;100.00
64616;BME280;51027;42.162;24.754;2022-11-20T07:36:41;99127.84;;;14.82;100.00
64616;BME280;51027;42.162;24.754;2022-11-20T07:39:10;99140.09;;;14.97;100.00
64616;BME280;51027;42.162;24.754;2022-11-20T07:41:48;99154.50;;;14.93;100.00
64616;BME280;51027;42.162;24.754;2022-11-20T07:44:32;99150.47;;;15.00;100.00
64616;BME280;51027;42.162;24.754;2022-11-20T07:47:43;99156.03;;;15.10;100.00
64616;BME280;51027;42.162;24.754;2022-11-20T07:50:08;99151.25;;;15.02;100.00
64616;BME280;51027;42.162;24.754;2022-11-20T07:53:01;99141.38;;;15.04;100.00
64616;BME280;51027;42.162;24.754;2022-11-20T07:56:02;99144.47;;;15.11;100.00
64616;BME280;51027;42.162;24.754;2022-11-20T07:58:34;99142.13;;;15.06;100.00
64616;BME280;51027;42.162;24.754;2022-11-20T08:01:08;99136.97;;;15.17;100.00
64616;BME280;51027;42.162;24.754;2022-11-20T08:03:43;99131.88;;;15.14;100.00
64616;BME280;51027;42.162;24.754;2022-11-20T08:06:14;99131.19;;;15.11;100.00
64616;BME280;51027;42.162;24.754;2022-11-20T08:08:46;99129.44;;;15.24;100.00
64616;BME280;51027;42.162;24.754;2022-11-20T08:11:12;99132.13;;;15.37;100.00
64616;BME280;51027;42.162;24.754;2022-11-20T08:13:59;99141.16;;;15.47;100.00
64616;BME280;51027;42.162;24.754;2022-11-20T08:16:47;99148.38;;;15.57;100.00
64616;BME280;51027;42.162;24.754;2022-11-20T08:19:19;99156.56;;;15.54;100.00
64616;BME280;51027;42.162;24.754;2022-11-20T08:21:50;99148.72;;;15.53;100.00
64616;BME280;51027;42.162;24.754;2022-11-20T08:24:21;99131.63;;;15.82;100.00
64616;BME280;51027;42.162;24.754;2022-11-20T08:26:47;99140.84;;;16.02;100.00
64616;BME280;51027;42.162;24.754;2022-11-20T08:29:19;99136.03;;;16.33;100.00
64616;BME280;51027;42.162;24.754;2022-11-20T08:31:47;99141.16;;;16.60;100.00
64616;BME280;51027;42.162;24.754;2022-11-20T08:34:21;99138.91;;;16.66;100.00
64616;BME280;51027;42.162;24.754;2022-11-20T08:36:50;99128.22;;;20.20;87.32
64616;BME280;51027;42.162;24.754;2022-11-20T08:39:33;99125.09;;;20.05;87.99
64616;BME280;51027;42.162;24.754;2022-11-20T08:42:13;99114.28;;;19.23;87.18
64616;BME280;51027;42.162;24.754;2022-11-20T08:44:48;99118.22;;;17.88;94.51
64616;BME280;51027;42.162;24.754;2022-11-20T08:47:17;99114.41;;;17.68;96.77
64616;BME280;51027;42.162;24.754;2022-11-20T08:49:43;99110.09;;;17.43;98.63
64616;BME280;51027;42.162;24.754;2022-11-20T08:52:09;99114.84;;;17.62;98.55
64616;BME280;51027;42.162;24.754;2022-11-20T08:54:34;99117.97;;;17.45;99.64
64616;BME280;51027;42.162;24.754;2022-11-20T08:57:00;99130.38;;;17.68;98.49
64616;BME280;51027;42.162;24.754;2022-11-20T08:59:29;99120.34;;;19.46;89.87
64616;BME280;51027;42.162;24.754;2022-11-20T09:02:02;99114.25;;;19.76;87.55
64616;BME280;51027;42.162;24.754;2022-11-20T09:04:28;99120.69;;;18.68;92.57
64616;BME280;51027;42.162;24.754;2022-11-20T09:07:02;99117.69;;;18.50;95.26
64616;BME280;51027;42.162;24.754;2022-11-20T09:09:28;99094.75;;;22.00;78.62
64616;BME280;51027;42.162;24.754;2022-11-20T09:11:54;99118.28;;;21.59;79.05
64616;BME280;51027;42.162;24.754;2022-11-20T09:14:23;99109.56;;;20.99;82.59
64616;BME280;51027;42.162;24.754;2022-11-20T09:16:54;99109.13;;;20.65;84.60
64616;BME280;51027;42.162;24.754;2022-11-20T09:19:26;99107.53;;;20.22;88.71
64616;BME280;51027;42.162;24.754;2022-11-20T09:21:51;99108.38;;;19.82;88.15
64616;BME280;51027;42.162;24.754;2022-11-20T09:24:18;99099.84;;;19.47;87.74
64616;BME280;51027;42.162;24.754;2022-11-20T09:26:44;99054.66;;;19.13;90.04
64616;BME280;51027;42.162;24.754;2022-11-20T09:29:10;99073.41;;;19.44;89.25
64616;BME280;51027;42.162;24.754;2022-11-20T09:31:36;99072.38;;;19.56;86.52
64616;BME280;51027;42.162;24.754;2022-11-20T09:34:02;99080.28;;;19.25;88.38
64616;BME280;51027;42.162;24.754;2022-11-20T09:36:27;99068.09;;;19.74;87.21
64616;BME280;51027;42.162;24.754;2022-11-20T09:38:53;99067.69;;;20.09;84.14
64616;BME280;51027;42.162;24.754;2022-11-20T09:44:24;99057.72;;;24.50;66.76
64616;BME280;51027;42.162;24.754;2022-11-20T09:47:02;99045.84;;;24.85;62.50
64616;BME280;51027;42.162;24.754;2022-11-20T09:50:07;99044.59;;;24.04;63.49
64616;BME280;51027;42.162;24.754;2022-11-20T09:55:11;99036.94;;;26.44;52.54
64616;BME280;51027;42.162;24.754;2022-11-20T09:57:42;99023.56;;;23.66;61.49
64616;BME280;51027;42.162;24.754;2022-11-20T10:00:12;99017.81;;;22.00;67.71
64616;BME280;51027;42.162;24.754;2022-11-20T10:05:52;99031.53;;;22.25;69.31
64616;BME280;51027;42.162;24.754;2022-11-20T10:11:05;99034.09;;;22.44;68.38
64616;BME280;51027;42.162;24.754;2022-11-20T10:16:50;99025.19;;;20.85;75.09
64616;BME280;51027;42.162;24.754;2022-11-20T10:22:06;99023.19;;;20.68;76.81
64616;BME280;51027;42.162;24.754;2022-11-20T10:25:00;99013.63;;;20.65;76.52
64616;BME280;51027;42.162;24.754;2022-11-20T10:30:19;99015.00;;;20.60;77.15
64616;BME280;51027;42.162;24.754;2022-11-20T10:32:50;99017.53;;;20.52;76.70
64616;BME280;51027;42.162;24.754;2022-11-20T10:38:03;99009.25;;;20.55;77.59
64616;BME280;51027;42.162;24.754;2022-11-20T10:40:35;98993.84;;;20.28;77.97
64616;BME280;51027;42.162;24.754;2022-11-20T10:43:21;99003.16;;;20.33;77.15
64616;BME280;51027;42.162;24.754;2022-11-20T10:45:53;98995.66;;;20.18;78.34
64616;BME280;51027;42.162;24.754;2022-11-20T10:48:24;98988.88;;;20.04;79.28
64616;BME280;51027;42.162;24.754;2022-11-20T10:53:53;98979.75;;;20.16;78.61
64616;BME280;51027;42.162;24.754;2022-11-20T11:01:26;98979.47;;;20.19;78.78
64616;BME280;51027;42.162;24.754;2022-11-20T11:03:53;98973.56;;;20.16;78.69
64616;BME280;51027;42.162;24.754;2022-11-20T11:06:35;98980.44;;;20.18;79.89
64616;BME280;51027;42.162;24.754;2022-11-20T11:09:09;98973.56;;;20.25;79.98
64616;BME280;51027;42.162;24.754;2022-11-20T11:11:38;98970.75;;;20.27;79.54
64616;BME280;51027;42.162;24.754;2022-11-20T11:14:07;98962.72;;;20.17;79.34
64616;BME280;51027;42.162;24.754;2022-11-20T11:16:33;98944.25;;;19.95;80.05
64616;BME280;51027;42.162;24.754;2022-11-20T11:19:12;98945.13;;;20.05;80.58
64616;BME280;51027;42.162;24.754;2022-11-20T11:21:38;98947.75;;;19.85;81.19
64616;BME280;51027;42.162;24.754;2022-11-20T11:24:19;98950.22;;;19.68;82.25
64616;BME280;51027;42.162;24.754;2022-11-20T11:27:00;98947.88;;;19.74;82.51
64616;BME280;51027;42.162;24.754;2022-11-20T11:29:30;98939.16;;;19.82;80.11
64616;BME280;51027;42.162;24.754;2022-11-20T11:34:39;98940.16;;;19.91;79.96
64616;BME280;51027;42.162;24.754;2022-11-20T11:37:15;98932.81;;;19.73;80.13
64616;BME280;51027;42.162;24.754;2022-11-20T11:39:43;98936.59;;;19.71;80.61
64616;BME280;51027;42.162;24.754;2022-11-20T11:42:13;98930.50;;;19.59;80.53
64616;BME280;51027;42.162;24.754;2022-11-20T11:44:44;98934.19;;;19.68;79.30
64616;BME280;51027;42.162;24.754;2022-11-20T11:47:35;98939.03;;;19.83;78.88
64616;BME280;51027;42.162;24.754;2022-11-20T11:52:28;98942.72;;;20.11;76.80
64616;BME280;51027;42.162;24.754;2022-11-20T11:54:57;98934.44;;;20.05;77.22
64616;BME280;51027;42.162;24.754;2022-11-20T11:57:27;98946.38;;;20.10;76.69
64616;BME280;51027;42.162;24.754;2022-11-20T12:02:57;98949.91;;;20.21;75.23
64616;BME280;51027;42.162;24.754;2022-11-20T12:05:31;98936.13;;;20.25;77.92
64616;BME280;51027;42.162;24.754;2022-11-20T12:11:11;98943.31;;;20.25;77.20
64616;BME280;51027;42.162;24.754;2022-11-20T12:14:01;98937.38;;;20.21;76.05
64616;BME280;51027;42.162;24.754;2022-11-20T12:16:30;98918.09;;;20.08;78.26
64616;BME280;51027;42.162;24.754;2022-11-20T12:18:57;98921.78;;;20.17;77.97
64616;BME280;51027;42.162;24.754;2022-11-20T12:21:28;98922.91;;;20.33;76.35
64616;BME280;51027;42.162;24.754;2022-11-20T12:32:44;98908.69;;;20.23;73.74
64616;BME280;51027;42.162;24.754;2022-11-20T12:43:26;98912.44;;;19.92;78.11
64616;BME280;51027;42.162;24.754;2022-11-20T13:02:25;98910.00;;;19.69;75.74
64616;BME280;51027;42.162;24.754;2022-11-20T13:05:17;98922.72;;;19.87;76.15
64616;BME280;51027;42.162;24.754;2022-11-20T13:07:44;98911.03;;;19.88;74.63
64616;BME280;51027;42.162;24.754;2022-11-20T13:15:53;98925.47;;;20.64;59.65
64616;BME280;51027;42.162;24.754;2022-11-20T13:18:21;98931.38;;;20.67;58.96
64616;BME280;51027;42.162;24.754;2022-11-20T13:20:47;98927.31;;;20.54;60.58
64616;BME280;51027;42.162;24.754;2022-11-20T13:23:25;98940.09;;;20.60;58.89
64616;BME280;51027;42.162;24.754;2022-11-20T13:25:50;98931.09;;;20.61;59.66
64616;BME280;51027;42.162;24.754;2022-11-20T13:30:54;98930.75;;;20.93;54.31
64616;BME280;51027;42.162;24.754;2022-11-20T13:33:33;98934.25;;;20.93;54.04
64616;BME280;51027;42.162;24.754;2022-11-20T13:36:06;98950.94;;;20.78;55.42
64616;BME280;51027;42.162;24.754;2022-11-20T13:38:47;98960.31;;;21.11;52.01
64616;BME280;51027;42.162;24.754;2022-11-20T13:41:24;98964.69;;;20.92;54.33
64616;BME280;51027;42.162;24.754;2022-11-20T13:43:58;98964.56;;;20.94;53.97
64616;BME280;51027;42.162;24.754;2022-11-20T13:46:35;98941.06;;;20.88;53.15
64616;BME280;51027;42.162;24.754;2022-11-20T13:49:07;98938.25;;;20.70;53.56
64616;BME280;51027;42.162;24.754;2022-11-20T13:51:49;98974.88;;;20.89;53.81
64616;BME280;51027;42.162;24.754;2022-11-20T13:59:58;98994.16;;;20.83;54.01
64616;BME280;51027;42.162;24.754;2022-11-20T14:02:27;99004.31;;;20.50;57.17
64616;BME280;51027;42.162;24.754;2022-11-20T14:04:58;99009.81;;;19.99;61.24
64616;BME280;51027;42.162;24.754;2022-11-20T14:07:35;99016.78;;;19.29;67.36
64616;BME280;51027;42.162;24.754;2022-11-20T14:10:05;98997.53;;;19.05;70.81
64616;BME280;51027;42.162;24.754;2022-11-20T14:12:32;98982.25;;;18.54;73.15
64616;BME280;51027;42.162;24.754;2022-11-20T14:14:59;99002.16;;;18.38;74.63
64616;BME280;51027;42.162;24.754;2022-11-20T14:19:54;98986.16;;;18.06;72.49
64616;BME280;51027;42.162;24.754;2022-11-20T14:22:25;98987.44;;;17.80;72.18
64616;BME280;51027;42.162;24.754;2022-11-20T14:27:39;98974.84;;;17.71;71.33
64616;BME280;51027;42.162;24.754;2022-11-20T14:30:06;98979.66;;;17.77;71.92
64616;BME280;51027;42.162;24.754;2022-11-20T14:32:37;98993.06;;;17.64;71.35
64616;BME280;51027;42.162;24.754;2022-11-20T14:35:08;98975.66;;;17.60;70.76
64616;BME280;51027;42.162;24.754;2022-11-20T14:37:37;98980.63;;;17.76;68.68
64616;BME280;51027;42.162;24.754;2022-11-20T14:40:21;98973.88;;;17.72;69.68
64616;BME280;51027;42.162;24.754;2022-11-20T14:42:47;98981.22;;;17.57;70.56
64616;BME280;51027;42.162;24.754;2022-11-20T14:45:12;98976.38;;;17.51;69.91
64616;BME280;51027;42.162;24.754;2022-11-20T14:47:39;98966.59;;;17.51;70.37
64616;BME280;51027;42.162;24.754;2022-11-20T14:50:22;98955.22;;;17.61;69.97
64616;BME280;51027;42.162;24.754;2022-11-20T14:52:53;98942.50;;;17.53;69.10
64616;BME280;51027;42.162;24.754;2022-11-20T14:55:38;98943.47;;;17.41;70.86
64616;BME280;51027;42.162;24.754;2022-11-20T14:58:21;98941.53;;;17.54;70.77
64616;BME280;51027;42.162;24.754;2022-11-20T15:01:04;98944.44;;;17.40;71.87
64616;BME280;51027;42.162;24.754;2022-11-20T15:03:39;98954.38;;;17.38;71.90
64616;BME280;51027;42.162;24.754;2022-11-20T15:06:06;98947.97;;;17.40;71.56
64616;BME280;51027;42.162;24.754;2022-11-20T15:08:34;98963.69;;;17.43;72.24
64616;BME280;51027;42.162;24.754;2022-11-20T15:10:59;98947.84;;;17.31;72.76
64616;BME280;51027;42.162;24.754;2022-11-20T15:13:31;98954.13;;;17.41;72.26
64616;BME280;51027;42.162;24.754;2022-11-20T15:15:59;98953.63;;;17.47;72.38
64616;BME280;51027;42.162;24.754;2022-11-20T15:18:36;98934.66;;;17.40;72.70
64616;BME280;51027;42.162;24.754;2022-11-20T15:21:06;98944.91;;;17.45;72.19
64616;BME280;51027;42.162;24.754;2022-11-20T15:23:35;98961.88;;;17.44;73.00
64616;BME280;51027;42.162;24.754;2022-11-20T15:26:00;98964.06;;;17.39;72.53
64616;BME280;51027;42.162;24.754;2022-11-20T15:28:34;98964.41;;;17.45;73.91
64616;BME280;51027;42.162;24.754;2022-11-20T15:31:00;98970.81;;;17.32;74.61
64616;BME280;51027;42.162;24.754;2022-11-20T15:33:27;98974.44;;;17.19;74.33
64616;BME280;51027;42.162;24.754;2022-11-20T15:35:52;98990.53;;;17.29;74.44
64616;BME280;51027;42.162;24.754;2022-11-20T15:38:18;98990.03;;;17.46;74.67
64616;BME280;51027;42.162;24.754;2022-11-20T15:40:43;98994.66;;;17.33;74.48
64616;BME280;51027;42.162;24.754;2022-11-20T15:43:08;98988.72;;;17.41;74.25
64616;BME280;51027;42.162;24.754;2022-11-20T15:45:50;98983.03;;;17.34;74.48
64616;BME280;51027;42.162;24.754;2022-11-20T15:48:19;98984.13;;;17.20;75.67
64616;BME280;51027;42.162;24.754;2022-11-20T15:50:55;98984.72;;;17.13;75.84
64616;BME280;51027;42.162;24.754;2022-11-20T15:53:23;98975.88;;;17.01;76.02
64616;BME280;51027;42.162;24.754;2022-11-20T15:55:48;98975.13;;;16.88;75.60
64616;BME280;51027;42.162;24.754;2022-11-20T15:58:13;98978.97;;;16.95;74.39
64616;BME280;51027;42.162;24.754;2022-11-20T16:00:39;98963.00;;;16.84;75.37
64616;BME280;51027;42.162;24.754;2022-11-20T16:03:04;98976.53;;;16.81;78.07
64616;BME280;51027;42.162;24.754;2022-11-20T16:05:30;98980.22;;;16.67;80.17
64616;BME280;51027;42.162;24.754;2022-11-20T16:07:56;98999.34;;;16.72;81.47
64616;BME280;51027;42.162;24.754;2022-11-20T16:10:22;99005.34;;;16.63;79.78